sensor_id;sensor_type;location;lat;lon;timestamp;P1;durP1;ratioP1;P2;durP2;ratioP2
21943;SDS011;11136;48.778;9.126;2022-12-07T00:00:41;8.50;;;5.60;;
21943;SDS011;11136;48.778;9.126;2022-12-07T00:03:06;8.68;;;5.63;;
21943;SDS011;11136;48.778;9.126;2022-12-07T00:05:32;7.90;;;5.10;;
21943;SDS011;11136;48.778;9.126;2022-12-07T00:07:57;7.40;;;5.47;;
21943;SDS011;11136;48.778;9.126;2022-12-07T00:10:23;7.03;;;4.97;;
21943;SDS011;11136;48.778;9.126;2022-12-07T00:12:49;8.00;;;5.60;;
21943;SDS011;11136;48.778;9.126;2022-12-07T00:15:15;8.98;;;5.90;;
21943;SDS011;11136;48.778;9.126;2022-12-07T00:17:40;7.45;;;5.32;;
21943;SDS011;11136;48.778;9.126;2022-12-07T00:20:06;8.98;;;6.78;;
21943;SDS011;11136;48.778;9.126;2022-12-07T00:22:32;7.53;;;5.97;;
21943;SDS011;11136;48.778;9.126;2022-12-07T00:24:57;8.05;;;5.82;;
21943;SDS011;11136;48.778;9.126;2022-12-07T00:27:23;7.47;;;5.72;;
21943;SDS011;11136;48.778;9.126;2022-12-07T00:29:48;7.07;;;5.68;;
21943;SDS011;11136;48.778;9.126;2022-12-07T00:32:14;8.77;;;5.75;;
21943;SDS011;11136;48.778;9.126;2022-12-07T00:34:39;9.65;;;6.07;;
21943;SDS011;11136;48.778;9.126;2022-12-07T00:37:05;8.70;;;5.82;;
21943;SDS011;11136;48.778;9.126;2022-12-07T00:39:30;8.35;;;6.00;;
21943;SDS011;11136;48.778;9.126;2022-12-07T00:41:56;9.70;;;6.43;;
21943;SDS011;11136;48.778;9.126;2022-12-07T00:44:21;10.38;;;6.63;;
21943;SDS011;11136;48.778;9.126;2022-12-07T00:46:47;10.90;;;6.40;;
21943;SDS011;11136;48.778;9.126;2022-12-07T00:49:12;9.85;;;6.65;;
21943;SDS011;11136;48.778;9.126;2022-12-07T00:51:38;7.32;;;6.03;;
21943;SDS011;11136;48.778;9.126;2022-12-07T00:54:04;10.82;;;6.65;;
21943;SDS011;11136;48.778;9.126;2022-12-07T00:56:29;10.00;;;6.65;;
21943;SDS011;11136;48.778;9.126;2022-12-07T00:58:55;8.20;;;6.32;;
21943;SDS011;11136;48.778;9.126;2022-12-07T01:01:23;12.07;;;6.85;;
21943;SDS011;11136;48.778;9.126;2022-12-07T01:03:50;11.02;;;7.30;;
21943;SDS011;11136;48.778;9.126;2022-12-07T01:06:17;12.20;;;6.38;;
21943;SDS011;11136;48.778;9.126;2022-12-07T01:08:43;9.45;;;6.38;;
21943;SDS011;11136;48.778;9.126;2022-12-07T01:11:09;8.10;;;6.45;;
21943;SDS011;11136;48.778;9.126;2022-12-07T01:13:39;8.93;;;6.25;;
21943;SDS011;11136;48.778;9.126;2022-12-07T01:16:05;9.88;;;6.32;;
21943;SDS011;11136;48.778;9.126;2022-12-07T01:18:33;13.82;;;6.72;;
21943;SDS011;11136;48.778;9.126;2022-12-07T01:21:02;12.57;;;7.10;;
21943;SDS011;11136;48.778;9.126;2022-12-07T01:23:39;9.15;;;6.40;;
21943;SDS011;11136;48.778;9.126;2022-12-07T01:26:06;9.00;;;6.43;;
21943;SDS011;11136;48.778;9.126;2022-12-07T01:28:35;10.25;;;6.95;;
21943;SDS011;11136;48.778;9.126;2022-12-07T01:31:07;11.00;;;7.45;;
21943;SDS011;11136;48.778;9.126;2022-12-07T01:33:38;10.10;;;6.25;;
21943;SDS011;11136;48.778;9.126;2022-12-07T01:36:05;9.00;;;6.65;;
21943;SDS011;11136;48.778;9.126;2022-12-07T01:38:32;9.88;;;6.60;;
21943;SDS011;11136;48.778;9.126;2022-12-07T01:40:58;9.90;;;6.72;;
21943;SDS011;11136;48.778;9.126;2022-12-07T01:43:26;10.25;;;7.47;;
21943;SDS011;11136;48.778;9.126;2022-12-07T01:45:53;10.82;;;7.22;;
21943;SDS011;11136;48.778;9.126;2022-12-07T01:48:27;10.23;;;7.03;;
21943;SDS011;11136;48.778;9.126;2022-12-07T01:51:04;10.95;;;7.15;;
21943;SDS011;11136;48.778;9.126;2022-12-07T01:53:33;9.40;;;6.03;;
21943;SDS011;11136;48.778;9.126;2022-12-07T01:56:02;13.57;;;7.80;;
21943;SDS011;11136;48.778;9.126;2022-12-07T01:58:30;9.55;;;6.68;;
21943;SDS011;11136;48.778;9.126;2022-12-07T02:00:56;9.82;;;6.70;;
21943;SDS011;11136;48.778;9.126;2022-12-07T02:03:29;11.80;;;7.43;;
21943;SDS011;11136;48.778;9.126;2022-12-07T02:05:59;9.90;;;6.88;;
21943;SDS011;11136;48.778;9.126;2022-12-07T02:08:25;9.30;;;6.85;;
21943;SDS011;11136;48.778;9.126;2022-12-07T02:10:51;10.05;;;6.88;;
21943;SDS011;11136;48.778;9.126;2022-12-07T02:13:20;11.63;;;7.57;;
21943;SDS011;11136;48.778;9.126;2022-12-07T02:18:23;11.27;;;7.78;;
21943;SDS011;11136;48.778;9.126;2022-12-07T02:37:41;10.73;;;6.75;;
21943;SDS011;11136;48.778;9.126;2022-12-07T02:40:16;9.65;;;7.15;;
21943;SDS011;11136;48.778;9.126;2022-12-07T02:42:44;9.98;;;6.85;;
21943;SDS011;11136;48.778;9.126;2022-12-07T02:45:13;9.30;;;6.63;;
21943;SDS011;11136;48.778;9.126;2022-12-07T02:47:41;11.45;;;6.78;;
21943;SDS011;11136;48.778;9.126;2022-12-07T02:50:09;12.82;;;6.03;;
21943;SDS011;11136;48.778;9.126;2022-12-07T02:52:35;10.77;;;7.22;;
21943;SDS011;11136;48.778;9.126;2022-12-07T02:55:01;7.78;;;5.93;;
21943;SDS011;11136;48.778;9.126;2022-12-07T03:00:15;8.73;;;5.65;;
21943;SDS011;11136;48.778;9.126;2022-12-07T03:10:58;11.25;;;6.55;;
21943;SDS011;11136;48.778;9.126;2022-12-07T03:13:33;11.65;;;6.70;;
21943;SDS011;11136;48.778;9.126;2022-12-07T03:16:14;10.82;;;6.55;;
21943;SDS011;11136;48.778;9.126;2022-12-07T03:18:44;9.63;;;6.40;;
21943;SDS011;11136;48.778;9.126;2022-12-07T03:21:34;10.32;;;6.32;;
21943;SDS011;11136;48.778;9.126;2022-12-07T03:24:04;9.85;;;5.85;;
21943;SDS011;11136;48.778;9.126;2022-12-07T03:26:36;8.63;;;5.82;;
21943;SDS011;11136;48.778;9.126;2022-12-07T03:29:07;9.77;;;6.50;;
21943;SDS011;11136;48.778;9.126;2022-12-07T03:31:41;12.90;;;6.80;;
21943;SDS011;11136;48.778;9.126;2022-12-07T03:34:12;9.63;;;5.90;;
21943;SDS011;11136;48.778;9.126;2022-12-07T03:36:47;8.15;;;5.47;;
21943;SDS011;11136;48.778;9.126;2022-12-07T03:39:22;11.30;;;7.18;;
21943;SDS011;11136;48.778;9.126;2022-12-07T03:41:49;10.02;;;6.72;;
21943;SDS011;11136;48.778;9.126;2022-12-07T03:44:15;14.70;;;7.05;;
21943;SDS011;11136;48.778;9.126;2022-12-07T03:46:50;8.15;;;6.65;;
21943;SDS011;11136;48.778;9.126;2022-12-07T03:52:35;8.90;;;6.15;;
21943;SDS011;11136;48.778;9.126;2022-12-07T03:55:10;9.50;;;6.40;;
21943;SDS011;11136;48.778;9.126;2022-12-07T03:58:05;10.27;;;6.55;;
21943;SDS011;11136;48.778;9.126;2022-12-07T04:00:34;9.77;;;6.65;;
21943;SDS011;11136;48.778;9.126;2022-12-07T04:02:59;10.60;;;6.30;;
21943;SDS011;11136;48.778;9.126;2022-12-07T04:05:25;10.93;;;6.88;;
21943;SDS011;11136;48.778;9.126;2022-12-07T04:07:51;13.65;;;7.88;;
21943;SDS011;11136;48.778;9.126;2022-12-07T04:10:17;9.95;;;6.95;;
21943;SDS011;11136;48.778;9.126;2022-12-07T04:12:42;9.02;;;6.10;;
21943;SDS011;11136;48.778;9.126;2022-12-07T04:15:08;11.13;;;6.93;;
21943;SDS011;11136;48.778;9.126;2022-12-07T04:17:34;11.10;;;6.50;;
21943;SDS011;11136;48.778;9.126;2022-12-07T04:19:59;9.13;;;5.93;;
21943;SDS011;11136;48.778;9.126;2022-12-07T04:22:25;10.60;;;6.40;;
21943;SDS011;11136;48.778;9.126;2022-12-07T04:24:51;10.80;;;6.78;;
21943;SDS011;11136;48.778;9.126;2022-12-07T04:27:16;9.80;;;6.28;;
21943;SDS011;11136;48.778;9.126;2022-12-07T04:29:42;7.97;;;5.97;;
21943;SDS011;11136;48.778;9.126;2022-12-07T04:32:08;10.75;;;5.93;;
21943;SDS011;11136;48.778;9.126;2022-12-07T04:34:33;7.13;;;5.10;;
21943;SDS011;11136;48.778;9.126;2022-12-07T04:36:59;7.18;;;4.40;;
21943;SDS011;11136;48.778;9.126;2022-12-07T04:39:25;7.40;;;4.00;;
21943;SDS011;11136;48.778;9.126;2022-12-07T04:41:53;5.82;;;5.00;;
21943;SDS011;11136;48.778;9.126;2022-12-07T04:44:19;6.65;;;4.00;;
21943;SDS011;11136;48.778;9.126;2022-12-07T04:46:46;7.15;;;4.68;;
21943;SDS011;11136;48.778;9.126;2022-12-07T04:49:12;6.40;;;4.45;;
21943;SDS011;11136;48.778;9.126;2022-12-07T04:51:39;8.88;;;5.90;;
21943;SDS011;11136;48.778;9.126;2022-12-07T04:54:05;6.55;;;4.45;;
21943;SDS011;11136;48.778;9.126;2022-12-07T04:56:30;6.15;;;4.15;;
21943;SDS011;11136;48.778;9.126;2022-12-07T04:58:56;5.93;;;4.25;;
21943;SDS011;11136;48.778;9.126;2022-12-07T05:01:22;6.72;;;4.50;;
21943;SDS011;11136;48.778;9.126;2022-12-07T05:03:48;5.68;;;3.78;;
21943;SDS011;11136;48.778;9.126;2022-12-07T05:06:14;6.57;;;4.15;;
21943;SDS011;11136;48.778;9.126;2022-12-07T05:08:40;6.22;;;4.53;;
21943;SDS011;11136;48.778;9.126;2022-12-07T05:11:06;7.07;;;4.35;;
21943;SDS011;11136;48.778;9.126;2022-12-07T05:13:33;7.72;;;4.38;;
21943;SDS011;11136;48.778;9.126;2022-12-07T05:15:59;5.65;;;3.97;;
21943;SDS011;11136;48.778;9.126;2022-12-07T05:18:25;7.32;;;4.60;;
21943;SDS011;11136;48.778;9.126;2022-12-07T05:20:51;6.38;;;3.88;;
21943;SDS011;11136;48.778;9.126;2022-12-07T05:23:17;6.80;;;4.47;;
21943;SDS011;11136;48.778;9.126;2022-12-07T05:25:43;7.97;;;4.20;;
21943;SDS011;11136;48.778;9.126;2022-12-07T05:28:09;5.55;;;3.97;;
21943;SDS011;11136;48.778;9.126;2022-12-07T05:30:35;5.13;;;4.00;;
21943;SDS011;11136;48.778;9.126;2022-12-07T05:33:01;8.00;;;4.70;;
21943;SDS011;11136;48.778;9.126;2022-12-07T05:35:27;5.05;;;3.42;;
21943;SDS011;11136;48.778;9.126;2022-12-07T05:37:53;6.90;;;3.83;;
21943;SDS011;11136;48.778;9.126;2022-12-07T05:40:18;5.57;;;3.90;;
21943;SDS011;11136;48.778;9.126;2022-12-07T05:42:44;5.35;;;3.72;;
21943;SDS011;11136;48.778;9.126;2022-12-07T05:45:10;5.70;;;4.00;;
21943;SDS011;11136;48.778;9.126;2022-12-07T05:47:36;6.25;;;4.22;;
21943;SDS011;11136;48.778;9.126;2022-12-07T05:50:02;6.35;;;4.57;;
21943;SDS011;11136;48.778;9.126;2022-12-07T05:52:28;5.50;;;4.05;;
21943;SDS011;11136;48.778;9.126;2022-12-07T05:54:53;7.80;;;4.72;;
21943;SDS011;11136;48.778;9.126;2022-12-07T05:57:19;7.32;;;4.43;;
21943;SDS011;11136;48.778;9.126;2022-12-07T05:59:44;7.50;;;4.70;;
21943;SDS011;11136;48.778;9.126;2022-12-07T06:02:11;6.40;;;4.80;;
21943;SDS011;11136;48.778;9.126;2022-12-07T06:04:41;6.25;;;4.35;;
21943;SDS011;11136;48.778;9.126;2022-12-07T06:07:08;6.88;;;3.80;;
21943;SDS011;11136;48.778;9.126;2022-12-07T06:09:35;5.38;;;3.72;;
21943;SDS011;11136;48.778;9.126;2022-12-07T06:12:01;6.35;;;4.22;;
21943;SDS011;11136;48.778;9.126;2022-12-07T06:14:47;4.82;;;3.55;;
21943;SDS011;11136;48.778;9.126;2022-12-07T06:17:12;5.22;;;3.42;;
21943;SDS011;11136;48.778;9.126;2022-12-07T06:19:38;5.95;;;4.00;;
21943;SDS011;11136;48.778;9.126;2022-12-07T06:22:04;5.57;;;3.88;;
21943;SDS011;11136;48.778;9.126;2022-12-07T06:24:31;8.45;;;4.20;;
21943;SDS011;11136;48.778;9.126;2022-12-07T06:26:57;5.57;;;4.13;;
21943;SDS011;11136;48.778;9.126;2022-12-07T06:29:23;6.22;;;4.05;;
21943;SDS011;11136;48.778;9.126;2022-12-07T06:31:49;5.30;;;3.55;;
21943;SDS011;11136;48.778;9.126;2022-12-07T06:34:16;7.60;;;3.60;;
21943;SDS011;11136;48.778;9.126;2022-12-07T06:36:44;6.68;;;4.13;;
21943;SDS011;11136;48.778;9.126;2022-12-07T06:39:12;5.90;;;3.80;;
21943;SDS011;11136;48.778;9.126;2022-12-07T06:41:38;6.90;;;4.10;;
21943;SDS011;11136;48.778;9.126;2022-12-07T06:44:05;7.05;;;4.22;;
21943;SDS011;11136;48.778;9.126;2022-12-07T06:46:31;6.68;;;3.78;;
21943;SDS011;11136;48.778;9.126;2022-12-07T06:48:57;7.72;;;4.28;;
21943;SDS011;11136;48.778;9.126;2022-12-07T06:51:23;5.25;;;3.38;;
21943;SDS011;11136;48.778;9.126;2022-12-07T06:53:48;5.03;;;3.63;;
21943;SDS011;11136;48.778;9.126;2022-12-07T06:56:14;4.57;;;3.30;;
21943;SDS011;11136;48.778;9.126;2022-12-07T06:58:40;7.13;;;4.82;;
21943;SDS011;11136;48.778;9.126;2022-12-07T07:01:12;6.10;;;3.35;;
21943;SDS011;11136;48.778;9.126;2022-12-07T07:03:40;5.18;;;3.83;;
21943;SDS011;11136;48.778;9.126;2022-12-07T07:06:06;6.97;;;3.72;;
21943;SDS011;11136;48.778;9.126;2022-12-07T07:08:32;7.45;;;3.97;;
21943;SDS011;11136;48.778;9.126;2022-12-07T07:10:58;5.13;;;3.63;;
21943;SDS011;11136;48.778;9.126;2022-12-07T07:13:24;5.38;;;3.55;;
21943;SDS011;11136;48.778;9.126;2022-12-07T07:15:49;4.35;;;3.20;;
21943;SDS011;11136;48.778;9.126;2022-12-07T07:18:15;5.88;;;3.83;;
21943;SDS011;11136;48.778;9.126;2022-12-07T07:20:41;4.55;;;3.13;;
21943;SDS011;11136;48.778;9.126;2022-12-07T07:23:06;5.72;;;3.70;;
21943;SDS011;11136;48.778;9.126;2022-12-07T07:25:32;4.57;;;3.22;;
21943;SDS011;11136;48.778;9.126;2022-12-07T07:27:58;5.28;;;3.60;;
21943;SDS011;11136;48.778;9.126;2022-12-07T07:30:23;7.07;;;3.40;;
21943;SDS011;11136;48.778;9.126;2022-12-07T07:32:49;5.75;;;3.30;;
21943;SDS011;11136;48.778;9.126;2022-12-07T07:35:15;5.18;;;3.70;;
21943;SDS011;11136;48.778;9.126;2022-12-07T07:37:41;4.43;;;2.90;;
21943;SDS011;11136;48.778;9.126;2022-12-07T07:40:07;5.28;;;3.65;;
21943;SDS011;11136;48.778;9.126;2022-12-07T07:42:33;4.10;;;3.13;;
21943;SDS011;11136;48.778;9.126;2022-12-07T07:44:59;6.15;;;3.78;;
21943;SDS011;11136;48.778;9.126;2022-12-07T07:47:25;8.00;;;3.60;;
21943;SDS011;11136;48.778;9.126;2022-12-07T07:49:50;6.03;;;3.42;;
21943;SDS011;11136;48.778;9.126;2022-12-07T07:52:16;6.10;;;3.80;;
21943;SDS011;11136;48.778;9.126;2022-12-07T07:54:41;4.75;;;3.58;;
21943;SDS011;11136;48.778;9.126;2022-12-07T07:57:07;5.93;;;3.70;;
21943;SDS011;11136;48.778;9.126;2022-12-07T07:59:32;5.18;;;3.30;;
21943;SDS011;11136;48.778;9.126;2022-12-07T08:01:58;4.43;;;3.13;;
21943;SDS011;11136;48.778;9.126;2022-12-07T08:04:24;4.82;;;3.28;;
21943;SDS011;11136;48.778;9.126;2022-12-07T08:06:49;4.90;;;3.33;;
21943;SDS011;11136;48.778;9.126;2022-12-07T08:09:15;5.40;;;3.10;;
21943;SDS011;11136;48.778;9.126;2022-12-07T08:11:40;5.05;;;3.22;;
21943;SDS011;11136;48.778;9.126;2022-12-07T08:14:06;6.50;;;3.78;;
21943;SDS011;11136;48.778;9.126;2022-12-07T08:16:31;5.65;;;3.63;;
21943;SDS011;11136;48.778;9.126;2022-12-07T08:18:57;7.25;;;4.47;;
21943;SDS011;11136;48.778;9.126;2022-12-07T08:21:22;7.15;;;4.82;;
21943;SDS011;11136;48.778;9.126;2022-12-07T08:23:48;7.07;;;4.32;;
21943;SDS011;11136;48.778;9.126;2022-12-07T08:26:14;6.55;;;4.78;;
21943;SDS011;11136;48.778;9.126;2022-12-07T08:28:41;5.53;;;3.90;;
21943;SDS011;11136;48.778;9.126;2022-12-07T08:31:09;8.13;;;3.85;;
21943;SDS011;11136;48.778;9.126;2022-12-07T08:33:36;8.60;;;3.78;;
21943;SDS011;11136;48.778;9.126;2022-12-07T08:36:03;5.05;;;3.65;;
21943;SDS011;11136;48.778;9.126;2022-12-07T08:38:31;5.57;;;3.70;;
21943;SDS011;11136;48.778;9.126;2022-12-07T08:40:57;6.07;;;3.92;;
21943;SDS011;11136;48.778;9.126;2022-12-07T08:43:23;9.13;;;3.58;;
21943;SDS011;11136;48.778;9.126;2022-12-07T08:45:50;5.82;;;3.80;;
21943;SDS011;11136;48.778;9.126;2022-12-07T08:48:27;5.05;;;3.13;;
21943;SDS011;11136;48.778;9.126;2022-12-07T08:50:53;3.75;;;2.83;;
21943;SDS011;11136;48.778;9.126;2022-12-07T08:53:20;6.05;;;3.00;;
21943;SDS011;11136;48.778;9.126;2022-12-07T08:55:46;7.20;;;3.13;;
21943;SDS011;11136;48.778;9.126;2022-12-07T08:58:12;5.68;;;2.75;;
21943;SDS011;11136;48.778;9.126;2022-12-07T09:00:37;3.72;;;2.75;;
21943;SDS011;11136;48.778;9.126;2022-12-07T09:03:03;4.43;;;2.97;;
21943;SDS011;11136;48.778;9.126;2022-12-07T09:05:28;4.28;;;3.50;;
21943;SDS011;11136;48.778;9.126;2022-12-07T09:07:55;5.50;;;3.17;;
21943;SDS011;11136;48.778;9.126;2022-12-07T09:10:24;8.65;;;3.35;;
21943;SDS011;11136;48.778;9.126;2022-12-07T09:12:49;3.92;;;3.22;;
21943;SDS011;11136;48.778;9.126;2022-12-07T09:15:15;5.07;;;3.05;;
21943;SDS011;11136;48.778;9.126;2022-12-07T09:17:40;6.45;;;3.33;;
21943;SDS011;11136;48.778;9.126;2022-12-07T09:20:06;4.38;;;2.63;;
21943;SDS011;11136;48.778;9.126;2022-12-07T09:22:32;3.47;;;2.45;;
21943;SDS011;11136;48.778;9.126;2022-12-07T09:24:58;4.38;;;3.05;;
21943;SDS011;11136;48.778;9.126;2022-12-07T09:27:24;5.10;;;3.08;;
21943;SDS011;11136;48.778;9.126;2022-12-07T09:29:51;4.22;;;3.03;;
21943;SDS011;11136;48.778;9.126;2022-12-07T09:32:16;5.00;;;3.25;;
21943;SDS011;11136;48.778;9.126;2022-12-07T09:34:42;4.97;;;3.15;;
21943;SDS011;11136;48.778;9.126;2022-12-07T09:37:07;4.00;;;2.90;;
21943;SDS011;11136;48.778;9.126;2022-12-07T09:39:33;4.07;;;3.42;;
21943;SDS011;11136;48.778;9.126;2022-12-07T09:42:02;6.82;;;2.90;;
21943;SDS011;11136;48.778;9.126;2022-12-07T09:44:29;4.55;;;3.05;;
21943;SDS011;11136;48.778;9.126;2022-12-07T09:46:55;5.53;;;3.00;;
21943;SDS011;11136;48.778;9.126;2022-12-07T09:49:22;7.18;;;2.40;;
21943;SDS011;11136;48.778;9.126;2022-12-07T09:51:59;4.32;;;2.60;;
21943;SDS011;11136;48.778;9.126;2022-12-07T09:54:25;3.20;;;2.47;;
21943;SDS011;11136;48.778;9.126;2022-12-07T09:56:51;4.93;;;2.83;;
21943;SDS011;11136;48.778;9.126;2022-12-07T09:59:17;3.97;;;2.38;;
21943;SDS011;11136;48.778;9.126;2022-12-07T10:01:44;4.60;;;2.65;;
21943;SDS011;11136;48.778;9.126;2022-12-07T10:04:19;4.25;;;2.78;;
21943;SDS011;11136;48.778;9.126;2022-12-07T10:06:47;7.40;;;3.30;;
21943;SDS011;11136;48.778;9.126;2022-12-07T10:09:15;5.32;;;3.83;;
21943;SDS011;11136;48.778;9.126;2022-12-07T10:11:57;5.05;;;2.63;;
21943;SDS011;11136;48.778;9.126;2022-12-07T10:16:48;5.63;;;3.00;;
21943;SDS011;11136;48.778;9.126;2022-12-07T10:19:18;5.60;;;3.15;;
21943;SDS011;11136;48.778;9.126;2022-12-07T10:24:38;6.28;;;3.63;;
21943;SDS011;11136;48.778;9.126;2022-12-07T10:27:16;5.40;;;3.28;;
21943;SDS011;11136;48.778;9.126;2022-12-07T10:29:51;5.60;;;3.25;;
21943;SDS011;11136;48.778;9.126;2022-12-07T10:34:43;4.45;;;2.85;;
21943;SDS011;11136;48.778;9.126;2022-12-07T10:39:48;3.42;;;2.67;;
21943;SDS011;11136;48.778;9.126;2022-12-07T10:42:19;4.07;;;2.50;;
21943;SDS011;11136;48.778;9.126;2022-12-07T11:01:30;4.32;;;2.55;;
21943;SDS011;11136;48.778;9.126;2022-12-07T11:04:16;4.13;;;2.97;;
21943;SDS011;11136;48.778;9.126;2022-12-07T11:21:38;2.33;;;2.05;;
21943;SDS011;11136;48.778;9.126;2022-12-07T11:26:58;2.35;;;2.15;;
21943;SDS011;11136;48.778;9.126;2022-12-07T11:29:43;4.53;;;2.90;;
21943;SDS011;11136;48.778;9.126;2022-12-07T11:32:34;3.70;;;2.47;;
21943;SDS011;11136;48.778;9.126;2022-12-07T11:38:24;1.92;;;1.67;;
21943;SDS011;11136;48.778;9.126;2022-12-07T11:40:58;2.58;;;1.88;;
21943;SDS011;11136;48.778;9.126;2022-12-07T11:43:37;1.83;;;1.58;;
21943;SDS011;11136;48.778;9.126;2022-12-07T11:46:29;2.17;;;1.85;;
21943;SDS011;11136;48.778;9.126;2022-12-07T11:49:18;3.85;;;2.50;;
21943;SDS011;11136;48.778;9.126;2022-12-07T11:54:32;2.40;;;2.00;;
21943;SDS011;11136;48.778;9.126;2022-12-07T11:57:07;2.47;;;1.83;;
21943;SDS011;11136;48.778;9.126;2022-12-07T11:59:41;6.28;;;1.80;;
21943;SDS011;11136;48.778;9.126;2022-12-07T12:02:16;3.10;;;2.20;;
21943;SDS011;11136;48.778;9.126;2022-12-07T12:05:12;3.28;;;2.30;;
21943;SDS011;11136;48.778;9.126;2022-12-07T12:07:55;4.20;;;2.65;;
21943;SDS011;11136;48.778;9.126;2022-12-07T12:10:38;3.95;;;2.80;;
21943;SDS011;11136;48.778;9.126;2022-12-07T12:13:18;3.92;;;2.80;;
21943;SDS011;11136;48.778;9.126;2022-12-07T12:18:46;4.30;;;3.15;;
21943;SDS011;11136;48.778;9.126;2022-12-07T12:21:29;5.28;;;4.00;;
21943;SDS011;11136;48.778;9.126;2022-12-07T12:23:58;5.38;;;3.70;;
21943;SDS011;11136;48.778;9.126;2022-12-07T12:26:36;4.75;;;3.33;;
21943;SDS011;11136;48.778;9.126;2022-12-07T12:29:04;4.47;;;3.25;;
21943;SDS011;11136;48.778;9.126;2022-12-07T12:42:45;6.05;;;3.50;;
21943;SDS011;11136;48.778;9.126;2022-12-07T12:47:57;5.45;;;3.03;;
21943;SDS011;11136;48.778;9.126;2022-12-07T12:58:31;4.55;;;3.50;;
21943;SDS011;11136;48.778;9.126;2022-12-07T13:04:12;4.60;;;3.20;;
21943;SDS011;11136;48.778;9.126;2022-12-07T13:06:46;5.20;;;2.83;;
21943;SDS011;11136;48.778;9.126;2022-12-07T13:09:22;3.45;;;3.03;;
21943;SDS011;11136;48.778;9.126;2022-12-07T13:11:55;3.22;;;2.53;;
21943;SDS011;11136;48.778;9.126;2022-12-07T13:17:09;3.78;;;2.60;;
21943;SDS011;11136;48.778;9.126;2022-12-07T13:19:54;3.85;;;2.80;;
21943;SDS011;11136;48.778;9.126;2022-12-07T13:25:18;3.17;;;2.58;;
21943;SDS011;11136;48.778;9.126;2022-12-07T13:27:47;3.58;;;2.85;;
21943;SDS011;11136;48.778;9.126;2022-12-07T13:30:22;4.43;;;2.80;;
21943;SDS011;11136;48.778;9.126;2022-12-07T13:32:51;3.95;;;2.63;;
21943;SDS011;11136;48.778;9.126;2022-12-07T13:38:26;3.72;;;2.90;;
21943;SDS011;11136;48.778;9.126;2022-12-07T13:41:02;3.58;;;2.70;;
21943;SDS011;11136;48.778;9.126;2022-12-07T13:43:29;3.28;;;2.50;;
21943;SDS011;11136;48.778;9.126;2022-12-07T13:45:58;4.45;;;2.95;;
21943;SDS011;11136;48.778;9.126;2022-12-07T13:48:36;3.95;;;2.75;;
21943;SDS011;11136;48.778;9.126;2022-12-07T13:51:24;3.75;;;2.70;;
21943;SDS011;11136;48.778;9.126;2022-12-07T13:53:55;4.05;;;2.97;;
21943;SDS011;11136;48.778;9.126;2022-12-07T13:56:32;3.55;;;2.80;;
21943;SDS011;11136;48.778;9.126;2022-12-07T13:58:59;3.53;;;2.67;;
21943;SDS011;11136;48.778;9.126;2022-12-07T14:01:25;5.65;;;2.80;;
21943;SDS011;11136;48.778;9.126;2022-12-07T14:03:51;4.35;;;2.67;;
21943;SDS011;11136;48.778;9.126;2022-12-07T14:06:24;2.85;;;2.35;;
21943;SDS011;11136;48.778;9.126;2022-12-07T14:09:06;7.03;;;3.00;;
21943;SDS011;11136;48.778;9.126;2022-12-07T14:11:33;7.57;;;2.80;;
21943;SDS011;11136;48.778;9.126;2022-12-07T14:13:59;2.75;;;2.10;;
21943;SDS011;11136;48.778;9.126;2022-12-07T14:16:30;4.85;;;2.78;;
21943;SDS011;11136;48.778;9.126;2022-12-07T14:19:02;4.53;;;2.22;;
21943;SDS011;11136;48.778;9.126;2022-12-07T14:21:30;3.10;;;2.40;;
21943;SDS011;11136;48.778;9.126;2022-12-07T14:24:12;2.85;;;2.33;;
21943;SDS011;11136;48.778;9.126;2022-12-07T14:26:44;2.80;;;2.08;;
21943;SDS011;11136;48.778;9.126;2022-12-07T14:29:22;6.07;;;3.00;;
21943;SDS011;11136;48.778;9.126;2022-12-07T14:31:50;3.08;;;2.60;;
21943;SDS011;11136;48.778;9.126;2022-12-07T14:34:19;6.10;;;3.03;;
21943;SDS011;11136;48.778;9.126;2022-12-07T14:36:45;3.20;;;2.90;;
21943;SDS011;11136;48.778;9.126;2022-12-07T14:39:10;3.90;;;2.80;;
21943;SDS011;11136;48.778;9.126;2022-12-07T14:41:36;6.07;;;2.63;;
21943;SDS011;11136;48.778;9.126;2022-12-07T14:44:17;4.07;;;3.33;;
21943;SDS011;11136;48.778;9.126;2022-12-07T14:46:44;7.22;;;3.50;;
21943;SDS011;11136;48.778;9.126;2022-12-07T14:49:10;4.38;;;3.28;;
21943;SDS011;11136;48.778;9.126;2022-12-07T14:51:36;6.72;;;3.80;;
21943;SDS011;11136;48.778;9.126;2022-12-07T14:54:04;4.88;;;3.40;;
21943;SDS011;11136;48.778;9.126;2022-12-07T14:56:32;3.63;;;3.05;;
21943;SDS011;11136;48.778;9.126;2022-12-07T14:58:57;4.88;;;3.25;;
21943;SDS011;11136;48.778;9.126;2022-12-07T15:01:23;6.32;;;3.83;;
21943;SDS011;11136;48.778;9.126;2022-12-07T15:03:48;6.20;;;4.00;;
21943;SDS011;11136;48.778;9.126;2022-12-07T15:06:15;6.00;;;3.38;;
21943;SDS011;11136;48.778;9.126;2022-12-07T15:08:42;5.32;;;3.92;;
21943;SDS011;11136;48.778;9.126;2022-12-07T15:11:15;5.63;;;3.83;;
21943;SDS011;11136;48.778;9.126;2022-12-07T15:13:42;5.13;;;3.60;;
21943;SDS011;11136;48.778;9.126;2022-12-07T15:16:26;5.63;;;4.05;;
21943;SDS011;11136;48.778;9.126;2022-12-07T15:18:52;6.25;;;3.67;;
21943;SDS011;11136;48.778;9.126;2022-12-07T15:21:18;5.20;;;3.80;;
21943;SDS011;11136;48.778;9.126;2022-12-07T15:23:43;5.82;;;3.65;;
21943;SDS011;11136;48.778;9.126;2022-12-07T15:26:10;5.20;;;3.20;;
21943;SDS011;11136;48.778;9.126;2022-12-07T15:28:36;5.57;;;3.72;;
21943;SDS011;11136;48.778;9.126;2022-12-07T15:31:02;6.18;;;3.75;;
21943;SDS011;11136;48.778;9.126;2022-12-07T15:33:27;4.07;;;2.80;;
21943;SDS011;11136;48.778;9.126;2022-12-07T15:35:53;4.55;;;3.25;;
21943;SDS011;11136;48.778;9.126;2022-12-07T15:38:19;4.18;;;3.30;;
21943;SDS011;11136;48.778;9.126;2022-12-07T15:40:47;6.55;;;3.60;;
21943;SDS011;11136;48.778;9.126;2022-12-07T15:43:12;5.28;;;3.72;;
21943;SDS011;11136;48.778;9.126;2022-12-07T15:45:58;5.45;;;3.50;;
21943;SDS011;11136;48.778;9.126;2022-12-07T15:48:24;6.78;;;4.10;;
21943;SDS011;11136;48.778;9.126;2022-12-07T15:50:50;6.47;;;3.85;;
21943;SDS011;11136;48.778;9.126;2022-12-07T15:53:15;7.28;;;4.72;;
21943;SDS011;11136;48.778;9.126;2022-12-07T15:55:41;4.95;;;4.13;;
21943;SDS011;11136;48.778;9.126;2022-12-07T15:58:07;6.30;;;4.20;;
21943;SDS011;11136;48.778;9.126;2022-12-07T16:00:32;6.22;;;4.25;;
21943;SDS011;11136;48.778;9.126;2022-12-07T16:02:58;7.28;;;4.45;;
21943;SDS011;11136;48.778;9.126;2022-12-07T16:05:24;7.18;;;4.97;;
21943;SDS011;11136;48.778;9.126;2022-12-07T16:07:50;7.47;;;5.07;;
21943;SDS011;11136;48.778;9.126;2022-12-07T16:10:16;5.90;;;4.53;;
21943;SDS011;11136;48.778;9.126;2022-12-07T16:12:41;7.28;;;4.38;;
21943;SDS011;11136;48.778;9.126;2022-12-07T16:15:07;6.50;;;4.78;;
21943;SDS011;11136;48.778;9.126;2022-12-07T16:17:33;6.90;;;4.35;;
21943;SDS011;11136;48.778;9.126;2022-12-07T16:19:59;8.88;;;5.55;;
21943;SDS011;11136;48.778;9.126;2022-12-07T16:22:24;9.23;;;6.07;;
21943;SDS011;11136;48.778;9.126;2022-12-07T16:24:50;9.82;;;5.72;;
21943;SDS011;11136;48.778;9.126;2022-12-07T16:27:16;8.73;;;6.05;;
21943;SDS011;11136;48.778;9.126;2022-12-07T16:29:41;9.73;;;5.97;;
21943;SDS011;11136;48.778;9.126;2022-12-07T16:32:07;9.02;;;5.57;;
21943;SDS011;11136;48.778;9.126;2022-12-07T16:34:32;9.60;;;6.15;;
21943;SDS011;11136;48.778;9.126;2022-12-07T16:36:58;8.90;;;5.20;;
21943;SDS011;11136;48.778;9.126;2022-12-07T16:39:23;12.35;;;6.28;;
21943;SDS011;11136;48.778;9.126;2022-12-07T16:41:49;9.85;;;5.55;;
21943;SDS011;11136;48.778;9.126;2022-12-07T16:44:15;10.90;;;6.18;;
21943;SDS011;11136;48.778;9.126;2022-12-07T16:46:41;10.70;;;6.47;;
21943;SDS011;11136;48.778;9.126;2022-12-07T16:49:11;11.38;;;6.07;;
21943;SDS011;11136;48.778;9.126;2022-12-07T16:51:38;11.60;;;6.82;;
21943;SDS011;11136;48.778;9.126;2022-12-07T16:54:04;12.32;;;7.03;;